Hector International Airport
KFAR : now visible

Airfield :











YOU CAN JOIN US ON...

 
LOGIN :

Register | Disclaimer

   EN    FR    IT 

 









Legend :    VFR   Marginal VFR   IFR   Intensive IFR   Very Intensive IFR
Visi :
Ceiling :
>= 8 km
>= 3000ft
5 to 8 km
1000 to 3000 ft
1500m to 5 km
500 to 1000 ft
800 to 1500m
200 to 500 ft
< 800m
< 200 ft
Symbols :   Thunderstorms  Fog  Heavy snow  Heavy precipitations  Wind > 20 kt






- Airport Elevation : 902 ft
- IATA code : FAR


KFAR - Hector International

CURRENT METAR :
  • 021653Z AUTO VRB06KT 10SM CLR 22/09 A3005 RMK AO2 SLP173 T02220089

EXPIRED METARs :
  • 021553Z AUTO 07007KT 10SM CLR 22/09 A3004 RMK AO2 SLP172 T02170089
  • 021453Z AUTO 08009KT 10SM CLR 21/07 A3003 RMK AO2 SLP169 T02060067 53006
  • 020253Z 00000KT 10SM CLR 21/10 A2993 RMK AO2 SLP134 T02110100 55001

TAF KFAR
Valid from the 02 at 18:00 until the 03 at 18:00 UTC


021729Z 0218/0318 07008KT P6SM FEW200
FM030100 08005KT P6SM SKC
FM031400 14010KT P6SM BKN150
KZMP FIR / North America



MET'MAP, your aeronautical weather chart ! - Copyright ORBIFLY December 2007 - Disclaimer

ORBIFLY MET'MAP TEAM :

Programming & Development : Alexandra Zaïnal
Original concept : Baudouin d'Aumeries
Technical & hardware support : Manuel Goepfert
Assistance : Marc-Olivier Méhu




SOURCES & CREDITS :

   NOAA       Earth
Advisory